Time;durP1;ratioP1;P1;durP2;ratioP2;P2;SDS_P1;SDS_P2;PMS_P1;PMS_P2;Temp;Humidity;BMP_temperature;BMP_pressure;BME280_temperature;BME280_humidity;BME280_pressure;Samples;Min_cycle;Max_cycle;Signal;HPM_P1;HPM_P2
2023/03/05 00:00:30;;;;;;;8.80;3.05;;;;;;;7.47;48.56;100764.28;5029239;28;20384;-59
2023/03/05 00:02:57;;;;;;;6.38;2.15;;;;;;;7.52;48.56;100755.94;5029140;28;20057;-59
2023/03/05 00:05:24;;;;;;;7.50;2.80;;;;;;;7.50;48.43;100753.44;5029113;28;20049;-59
2023/03/05 00:07:53;;;;;;;4.40;1.92;;;;;;;7.52;48.17;100744.84;5029003;28;20491;-59
2023/03/05 00:10:20;;;;;;;5.80;2.08;;;;;;;7.49;48.56;100756.50;5029460;28;20475;-59
2023/03/05 00:12:48;;;;;;;4.70;1.95;;;;;;;7.48;47.88;100752.09;5028294;28;20058;-59
2023/03/05 00:15:15;;;;;;;8.80;3.30;;;;;;;7.51;47.91;100754.28;5029301;28;20054;-59
2023/03/05 00:17:42;;;;;;;4.95;2.58;;;;;;;7.53;47.90;100747.31;5028346;28;20057;-59
2023/03/05 00:20:10;;;;;;;4.47;2.00;;;;;;;7.50;48.67;100745.13;5028748;28;20054;-59
2023/03/05 00:22:38;;;;;;;5.18;2.38;;;;;;;7.54;48.86;100745.41;5028483;28;20496;-59
2023/03/05 00:25:07;;;;;;;8.10;2.95;;;;;;;7.56;48.43;100734.84;5029206;28;20064;-61
2023/03/05 00:27:38;;;;;;;7.40;3.20;;;;;;;7.51;48.42;100732.09;5028956;28;20380;-59
2023/03/05 00:30:06;;;;;;;8.55;2.28;;;;;;;7.48;48.75;100727.16;5029395;28;20407;-59
2023/03/05 00:32:35;;;;;;;5.97;1.85;;;;;;;7.45;49.09;100734.06;5028950;28;20053;-59
2023/03/05 00:35:02;;;;;;;4.82;1.95;;;;;;;7.46;48.90;100727.44;5028663;28;20719;-59
2023/03/05 00:37:29;;;;;;;5.10;1.65;;;;;;;7.46;49.73;100726.59;5029220;28;20053;-59
2023/03/05 00:39:57;;;;;;;3.38;1.65;;;;;;;7.51;48.71;100721.00;5028926;28;20092;-59
2023/03/05 00:42:26;;;;;;;5.05;1.75;;;;;;;7.47;48.65;100723.53;5027219;28;20053;-59
2023/03/05 00:44:53;;;;;;;4.80;1.40;;;;;;;7.45;48.31;100724.94;5028514;28;20065;-59
2023/03/05 00:47:20;;;;;;;4.32;1.70;;;;;;;7.44;49.08;100720.53;5020132;28;20057;-59
2023/03/05 00:49:49;;;;;;;4.35;1.67;;;;;;;7.47;48.10;100714.38;5028485;28;20058;-59
2023/03/05 00:52:17;;;;;;;6.05;1.40;;;;;;;7.50;48.70;100711.88;5028502;28;20050;-59
2023/03/05 00:54:44;;;;;;;4.47;1.75;;;;;;;7.48;48.25;100711.34;5028964;28;20054;-59
2023/03/05 00:57:11;;;;;;;5.65;2.13;;;;;;;7.49;49.22;100710.22;5022112;28;20385;-57
2023/03/05 00:59:40;;;;;;;7.63;1.65;;;;;;;7.52;48.89;100717.13;5027841;28;20053;-58
2023/03/05 01:02:07;;;;;;;4.82;1.55;;;;;;;7.51;49.73;100709.94;5028409;28;20060;-58
2023/03/05 01:04:38;;;;;;;4.32;1.60;;;;;;;7.57;49.68;100703.22;5030571;28;20071;-59
2023/03/05 01:07:05;;;;;;;6.20;1.60;;;;;;;7.60;49.92;100704.59;5031839;28;20399;-59
2023/03/05 01:09:34;;;;;;;7.47;2.13;;;;;;;7.56;50.09;100701.59;5032104;28;20507;-58
2023/03/05 01:12:02;;;;;;;4.95;1.92;;;;;;;7.49;49.79;100695.53;5029678;28;20065;-59
2023/03/05 01:14:29;;;;;;;6.20;1.58;;;;;;;7.51;50.63;100691.34;5032048;28;20050;-58
2023/03/05 01:17:01;;;;;;;5.03;1.60;;;;;;;7.51;49.72;100691.34;5031981;28;20045;-59
2023/03/05 01:19:31;;;;;;;6.05;2.20;;;;;;;7.55;51.13;100693.56;5031956;28;20488;-59
2023/03/05 01:21:59;;;;;;;8.48;2.10;;;;;;;7.52;50.75;100694.97;5031344;28;20064;-59
2023/03/05 01:24:26;;;;;;;6.22;2.00;;;;;;;7.54;52.12;100698.28;5031771;28;20056;-59
2023/03/05 01:26:53;;;;;;;8.40;2.13;;;;;;;7.56;53.21;100693.28;5030141;27;20045;-59
2023/03/05 01:29:20;;;;;;;7.82;2.33;;;;;;;7.53;52.85;100685.53;5031932;28;20057;-58
2023/03/05 01:31:48;;;;;;;6.13;3.08;;;;;;;7.47;54.40;100684.72;5031946;28;20403;-58
2023/03/05 01:34:20;;;;;;;9.45;2.70;;;;;;;7.44;54.96;100682.53;5031665;28;20060;-58
2023/03/05 01:36:48;;;;;;;8.40;2.85;;;;;;;7.41;56.33;100682.28;5031528;28;20530;-59
2023/03/05 01:39:16;;;;;;;6.38;2.50;;;;;;;7.38;56.43;100677.31;5030647;28;20072;-59
2023/03/05 01:41:43;;;;;;;10.23;3.40;;;;;;;7.38;56.94;100672.59;5030275;27;20131;-59
2023/03/05 01:44:22;;;;;;;11.57;3.08;;;;;;;7.36;56.66;100665.69;5031441;28;20054;-58
2023/03/05 01:46:49;;;;;;;7.43;3.00;;;;;;;7.31;56.94;100661.84;5031310;28;20383;-58
2023/03/05 01:49:22;;;;;;;8.73;2.90;;;;;;;7.28;56.96;100667.13;5031477;28;20049;-59
2023/03/05 01:51:59;;;;;;;7.60;2.80;;;;;;;7.24;57.86;100661.31;5031994;28;20068;-58
2023/03/05 01:54:32;;;;;;;7.70;3.35;;;;;;;7.22;57.72;100659.97;5031745;28;20080;-59
2023/03/05 01:57:05;;;;;;;9.23;3.92;;;;;;;7.17;58.64;100660.84;5029390;27;20514;-59
2023/03/05 01:59:33;;;;;;;7.38;3.30;;;;;;;7.15;58.23;100659.47;5030713;28;20459;-59
2023/03/05 02:02:01;;;;;;;11.40;3.67;;;;;;;7.10;58.62;100661.16;5030486;28;20057;-58
2023/03/05 02:04:36;;;;;;;7.00;3.53;;;;;;;7.13;59.12;100656.97;5031286;28;20076;-58
2023/03/05 02:07:04;;;;;;;8.15;3.30;;;;;;;7.11;58.56;100659.22;5030921;28;20061;-58
2023/03/05 02:09:31;;;;;;;8.15;3.85;;;;;;;7.06;59.54;100656.50;5030583;28;20419;-58
2023/03/05 02:11:59;;;;;;;11.23;3.50;;;;;;;7.06;58.95;100654.53;5028741;27;20057;-59
2023/03/05 02:14:29;;;;;;;7.05;2.78;;;;;;;7.08;59.40;100651.50;5031013;28;20057;-59
2023/03/05 02:16:56;;;;;;;7.82;3.10;;;;;;;7.05;59.55;100650.09;5031188;28;20403;-59
2023/03/05 02:19:27;;;;;;;10.13;3.53;;;;;;;7.05;59.37;100641.78;5031040;28;20045;-59
2023/03/05 02:21:55;;;;;;;7.18;2.83;;;;;;;7.03;59.85;100645.97;5030698;28;20127;-59
2023/03/05 02:24:35;;;;;;;7.20;3.22;;;;;;;7.04;59.35;100639.31;5020643;28;20057;-59
2023/03/05 02:27:05;;;;;;;8.93;3.38;;;;;;;7.07;59.19;100628.47;5029443;28;20064;-59
2023/03/05 02:29:35;;;;;;;8.57;2.97;;;;;;;7.08;59.44;100640.41;5030258;28;20064;-59
2023/03/05 02:32:03;;;;;;;7.53;3.03;;;;;;;7.06;59.33;100632.38;5030822;28;20496;-59
2023/03/05 02:34:30;;;;;;;10.07;3.30;;;;;;;7.02;59.87;100624.94;5029563;28;20053;-59
2023/03/05 02:36:59;;;;;;;8.90;3.67;;;;;;;6.94;60.01;100625.53;5031398;28;20045;-59
2023/03/05 02:39:26;;;;;;;7.93;2.95;;;;;;;6.93;59.88;100619.19;5030558;28;20049;-59
2023/03/05 02:41:53;;;;;;;7.68;2.83;;;;;;;6.93;59.88;100604.47;5028960;28;20122;-59
2023/03/05 02:44:20;;;;;;;9.75;2.90;;;;;;;6.89;60.44;100612.56;5030672;28;20408;-59
2023/03/05 02:46:48;;;;;;;6.00;2.60;;;;;;;6.87;59.75;100599.00;5030590;28;20057;-59
2023/03/05 02:49:15;;;;;;;7.85;2.80;;;;;;;6.85;60.34;100609.53;5030340;28;20490;-58
2023/03/05 02:51:42;;;;;;;10.55;3.00;;;;;;;6.87;60.42;100612.03;5030306;28;20053;-59
2023/03/05 02:54:11;;;;;;;7.22;3.13;;;;;;;6.86;59.90;100602.03;5030326;28;20507;-59
2023/03/05 02:56:38;;;;;;;7.97;3.55;;;;;;;6.87;59.95;100603.72;5029221;28;20042;-59
2023/03/05 02:59:05;;;;;;;8.75;4.32;;;;;;;6.89;59.78;100598.72;5030997;28;20062;-59
2023/03/05 03:01:33;;;;;;;9.15;5.03;;;;;;;6.88;60.43;100591.50;5029670;28;20053;-59
2023/03/05 03:04:00;;;;;;;11.25;5.05;;;;;;;6.89;60.31;100590.41;5030283;28;20056;-59
2023/03/05 03:06:27;;;;;;;11.68;5.97;;;;;;;6.86;59.83;100583.47;5029623;28;20058;-60
2023/03/05 03:08:55;;;;;;;14.98;6.32;;;;;;;6.86;60.45;100588.19;5028944;28;20062;-59
2023/03/05 03:11:23;;;;;;;12.07;6.10;;;;;;;6.85;60.79;100590.16;5028136;28;20057;-59
2023/03/05 03:13:50;;;;;;;10.88;6.10;;;;;;;6.82;60.66;100584.34;5030189;28;20053;-60
2023/03/05 03:16:18;;;;;;;11.52;6.53;;;;;;;6.81;60.31;100578.00;5029829;28;20491;-60
2023/03/05 03:18:47;;;;;;;14.18;6.95;;;;;;;6.86;60.51;100583.47;5029962;28;20046;-59
2023/03/05 03:21:19;;;;;;;9.20;6.22;;;;;;;6.86;60.39;100579.91;5029690;28;20487;-59
2023/03/05 03:23:47;;;;;;;12.60;5.45;;;;;;;6.84;60.05;100574.63;5029752;28;20068;-60
2023/03/05 03:26:14;;;;;;;10.80;5.60;;;;;;;6.76;59.91;100578.03;5029003;28;20049;-60
2023/03/05 03:28:43;;;;;;;15.05;6.05;;;;;;;6.73;59.92;100567.53;5030011;28;20373;-59
2023/03/05 03:31:10;;;;;;;10.45;5.15;;;;;;;6.71;60.14;100564.22;5029565;28;20060;-59
2023/03/05 03:33:37;;;;;;;9.75;4.90;;;;;;;6.72;60.11;100563.09;5030684;28;20074;-59
2023/03/05 03:36:06;;;;;;;9.52;5.07;;;;;;;6.75;60.28;100559.75;5029431;28;20053;-59
2023/03/05 03:38:33;;;;;;;13.18;5.15;;;;;;;6.79;59.90;100560.84;5029000;28;20416;-59
2023/03/05 03:41:00;;;;;;;7.97;4.85;;;;;;;6.80;60.40;100548.63;5028814;28;20053;-59
2023/03/05 03:43:27;;;;;;;9.85;5.18;;;;;;;6.80;59.53;100556.94;5029560;28;20064;-59
2023/03/05 03:45:56;;;;;;;12.48;5.22;;;;;;;6.78;60.22;100553.63;5029576;28;20526;-59
2023/03/05 03:48:23;;;;;;;9.13;5.10;;;;;;;6.78;60.02;100550.88;5029480;28;20046;-59
2023/03/05 03:50:50;;;;;;;10.15;5.65;;;;;;;6.77;59.57;100540.09;5029149;28;20065;-59
2023/03/05 03:53:18;;;;;;;6.90;3.80;;;;;;;6.64;60.26;100541.56;5029384;28;20057;-59
2023/03/05 03:55:45;;;;;;;7.53;3.90;;;;;;;6.65;59.90;100537.69;5028968;28;20510;-59
2023/03/05 03:58:12;;;;;;;9.68;3.58;;;;;;;6.69;60.04;100533.22;5029049;28;20507;-59
2023/03/05 04:00:40;;;;;;;6.90;3.53;;;;;;;6.67;60.21;100535.44;5029494;28;20053;-59
2023/03/05 04:03:09;;;;;;;9.77;4.45;;;;;;;6.69;59.81;100530.44;5029333;28;20081;-59
2023/03/05 04:05:36;;;;;;;7.18;4.32;;;;;;;6.69;60.12;100519.38;5029123;28;20057;-59
2023/03/05 04:08:07;;;;;;;9.23;5.38;;;;;;;6.70;59.53;100521.03;5028662;28;20050;-59
2023/03/05 04:10:34;;;;;;;9.60;4.25;;;;;;;6.71;59.72;100520.75;5028685;28;20049;-59
2023/03/05 04:13:01;;;;;;;10.32;4.90;;;;;;;6.68;59.53;100518.56;5028831;28;20491;-59
2023/03/05 04:15:28;;;;;;;8.80;4.10;;;;;;;6.68;59.75;100514.97;5028324;28;20065;-59
2023/03/05 04:17:56;;;;;;;7.45;4.43;;;;;;;6.69;59.28;100511.06;5028970;28;20049;-59
2023/03/05 04:20:25;;;;;;;8.43;4.05;;;;;;;6.63;59.91;100504.75;5029137;28;20053;-59
2023/03/05 04:22:52;;;;;;;8.65;4.43;;;;;;;6.65;60.27;100510.81;5028779;28;20064;-59
2023/03/05 04:25:19;;;;;;;9.00;4.90;;;;;;;6.66;60.20;100506.94;5028969;28;20584;-59
2023/03/05 04:27:46;;;;;;;8.80;4.90;;;;;;;6.69;59.91;100509.13;5027467;28;20057;-59
2023/03/05 04:30:14;;;;;;;10.43;5.68;;;;;;;6.70;59.71;100516.34;5029248;28;20411;-59
2023/03/05 04:32:42;;;;;;;9.95;5.65;;;;;;;6.71;59.63;100509.66;5028933;28;20054;-59
2023/03/05 04:35:10;;;;;;;8.82;5.63;;;;;;;6.72;59.81;100510.53;5029041;28;20483;-58
2023/03/05 04:37:38;;;;;;;8.85;5.63;;;;;;;6.74;59.96;100497.22;5028553;28;20042;-59
2023/03/05 04:40:07;;;;;;;8.07;5.53;;;;;;;6.73;59.69;100484.47;5031942;28;20056;-58
2023/03/05 04:42:34;;;;;;;10.07;5.97;;;;;;;6.73;59.95;100501.09;5029586;27;20492;-58
2023/03/05 04:45:01;;;;;;;12.23;5.88;;;;;;;6.70;59.89;100487.84;5029856;28;20420;-59
2023/03/05 04:47:28;;;;;;;7.70;5.43;;;;;;;6.69;59.64;100488.94;5032446;28;20403;-59
2023/03/05 04:49:56;;;;;;;9.20;5.65;;;;;;;6.70;59.92;100491.41;5031923;28;20061;-59
2023/03/05 04:52:23;;;;;;;8.98;5.53;;;;;;;6.68;59.77;100485.34;5032098;28;20065;-59
2023/03/05 04:54:53;;;;;;;8.90;5.85;;;;;;;6.69;59.86;100484.22;5032662;28;20053;-59
2023/03/05 04:57:20;;;;;;;10.15;5.47;;;;;;;6.63;59.57;100482.59;5030746;28;20486;-59
2023/03/05 04:59:47;;;;;;;10.70;5.28;;;;;;;6.65;59.71;100476.78;5031920;28;20049;-59
2023/03/05 05:02:14;;;;;;;9.70;5.50;;;;;;;6.50;59.97;100483.25;5032078;28;20065;-59
2023/03/05 05:04:44;;;;;;;7.30;5.00;;;;;;;6.56;59.91;100475.75;5032070;28;20053;-59
2023/03/05 05:07:11;;;;;;;8.25;4.63;;;;;;;6.53;60.02;100485.47;5032031;28;20503;-59
2023/03/05 05:09:40;;;;;;;10.20;5.68;;;;;;;6.50;59.92;100481.31;5031626;28;20049;-59
2023/03/05 05:12:09;;;;;;;8.88;5.32;;;;;;;6.55;60.29;100471.31;5030032;28;20504;-59
2023/03/05 05:14:36;;;;;;;10.18;5.90;;;;;;;6.57;59.96;100471.84;5032115;28;20054;-59
2023/03/05 05:17:04;;;;;;;10.23;5.47;;;;;;;6.56;60.10;100470.22;5031595;28;20060;-59
2023/03/05 05:19:32;;;;;;;11.23;5.65;;;;;;;6.60;59.72;100466.59;5031464;28;20049;-59
2023/03/05 05:21:59;;;;;;;10.35;5.95;;;;;;;6.59;60.27;100475.16;5032661;28;20049;-59
2023/03/05 05:24:26;;;;;;;12.30;5.82;;;;;;;6.62;59.95;100460.78;5031625;28;20053;-59
2023/03/05 05:26:54;;;;;;;9.45;6.50;;;;;;;6.59;60.09;100462.16;5030736;28;20514;-59
2023/03/05 05:29:23;;;;;;;12.18;6.97;;;;;;;6.60;59.95;100463.00;5031599;28;20049;-59
2023/03/05 05:31:52;;;;;;;11.88;6.45;;;;;;;6.59;60.17;100459.38;5032165;28;20054;-59
2023/03/05 05:34:20;;;;;;;10.35;6.18;;;;;;;6.58;60.39;100470.75;5032115;28;20399;-59
2023/03/05 05:36:47;;;;;;;12.05;6.80;;;;;;;6.62;60.32;100466.31;5031433;28;20049;-59
2023/03/05 05:39:14;;;;;;;12.57;6.45;;;;;;;6.59;60.64;100472.41;5032817;28;20053;-59
2023/03/05 05:41:41;;;;;;;13.32;6.70;;;;;;;6.63;60.28;100470.72;5039788;28;20049;-59
2023/03/05 05:44:09;;;;;;;8.50;5.93;;;;;;;6.56;60.76;100468.28;5040198;28;20060;-59
2023/03/05 05:46:37;;;;;;;10.73;6.95;;;;;;;6.59;60.68;100461.31;5051479;28;20053;-59
2023/03/05 05:49:04;;;;;;;15.15;7.68;;;;;;;6.56;60.91;100453.63;5050923;28;20045;-59
2023/03/05 05:51:32;;;;;;;16.67;9.25;;;;;;;6.55;60.78;100463.88;5050783;28;20498;-59
2023/03/05 05:53:59;;;;;;;17.85;9.15;;;;;;;6.55;60.98;100452.78;5045406;28;20053;-59
2023/03/05 05:56:27;;;;;;;15.77;9.85;;;;;;;6.52;60.76;100450.59;5029931;28;20491;-59
2023/03/05 05:58:54;;;;;;;18.25;10.20;;;;;;;6.48;60.83;100452.28;5031061;28;20050;-59
2023/03/05 06:01:24;;;;;;;21.17;12.00;;;;;;;6.46;61.15;100441.50;5031023;28;20381;-59
2023/03/05 06:03:52;;;;;;;22.30;12.60;;;;;;;6.39;61.00;100443.75;5031023;28;20480;-59
2023/03/05 06:06:23;;;;;;;18.83;12.40;;;;;;;6.42;61.33;100434.88;5031819;28;20072;-59
2023/03/05 06:08:51;;;;;;;19.67;12.57;;;;;;;6.38;61.33;100442.09;5030905;28;20731;-60
2023/03/05 06:11:19;;;;;;;19.40;12.98;;;;;;;6.37;61.28;100443.22;5029337;28;20049;-59
2023/03/05 06:13:46;;;;;;;24.00;14.13;;;;;;;6.36;61.33;100452.63;5031007;28;20058;-60
2023/03/05 06:16:16;;;;;;;16.73;12.27;;;;;;;6.39;61.46;100454.00;5030188;28;20053;-60
2023/03/05 06:18:43;;;;;;;21.98;14.05;;;;;;;6.38;61.10;100447.63;5030094;28;20444;-59
2023/03/05 06:21:14;;;;;;;22.48;15.25;;;;;;;6.37;61.61;100451.53;5031325;28;20407;-60
2023/03/05 06:23:42;;;;;;;18.73;12.40;;;;;;;6.42;61.52;100447.88;5031496;28;20049;-59
2023/03/05 06:26:12;;;;;;;20.02;13.40;;;;;;;6.42;61.71;100445.13;5029979;28;20073;-60
2023/03/05 06:28:39;;;;;;;;;;;;;;;6.40;61.27;100448.16;5031626;28;20524;-60
2023/03/05 06:31:09;;;;;;;20.75;13.38;;;;;;;6.45;61.33;100442.63;5030652;28;19921;-59
2023/03/05 06:33:37;;;;;;;18.67;13.43;;;;;;;6.44;61.54;100454.78;5030934;28;20056;-60
2023/03/05 06:36:05;;;;;;;21.02;13.52;;;;;;;6.45;61.34;100448.16;5030037;28;20515;-59
2023/03/05 06:38:34;;;;;;;25.60;14.70;;;;;;;6.49;61.37;100446.47;5030822;28;20046;-60
2023/03/05 06:41:04;;;;;;;21.00;14.07;;;;;;;6.56;61.40;100442.53;5030102;28;20057;-60
2023/03/05 06:43:34;;;;;;;25.00;16.25;;;;;;;6.62;60.98;100446.94;5030358;28;20057;-59
2023/03/05 06:46:02;;;;;;;;;;;;;;;6.62;60.92;100444.16;5030587;28;20076;-60
2023/03/05 06:48:29;;;;;;;23.80;15.82;;;;;;;6.68;60.69;100435.53;5030125;28;19927;-60
2023/03/05 06:50:56;;;;;;;24.58;15.75;;;;;;;6.73;60.50;100442.13;5030097;28;20064;-60
2023/03/05 06:53:23;;;;;;;24.23;15.43;;;;;;;6.78;60.44;100440.13;5030383;28;20498;-60
2023/03/05 06:55:53;;;;;;;25.73;16.83;;;;;;;6.85;60.68;100437.88;5028399;28;20053;-60
2023/03/05 06:58:20;;;;;;;23.92;16.33;;;;;;;6.88;60.74;100442.00;5030630;28;20064;-60
2023/03/05 07:00:48;;;;;;;22.33;14.50;;;;;;;6.94;60.79;100443.59;5029491;28;20054;-60
2023/03/05 07:03:15;;;;;;;22.10;16.10;;;;;;;6.85;60.69;100446.19;5029008;28;20410;-59
2023/03/05 07:05:43;;;;;;;24.02;15.82;;;;;;;7.00;60.84;100445.22;5030221;28;20061;-60
2023/03/05 07:08:10;;;;;;;22.17;14.57;;;;;;;7.11;60.52;100435.66;5025018;28;20076;-60
2023/03/05 07:10:39;;;;;;;22.58;14.23;;;;;;;7.02;60.21;100442.16;5025231;28;20065;-59
2023/03/05 07:13:08;;;;;;;20.58;13.63;;;;;;;7.00;60.37;100436.91;5028322;28;20049;-59
2023/03/05 07:15:38;;;;;;;21.25;13.63;;;;;;;7.02;61.02;100440.22;5030018;28;20062;-59
2023/03/05 07:18:06;;;;;;;20.83;13.85;;;;;;;6.93;60.93;100439.19;5029413;28;20053;-59
2023/03/05 07:20:34;;;;;;;22.80;14.05;;;;;;;6.98;60.95;100436.38;5028197;28;20042;-59
2023/03/05 07:23:02;;;;;;;19.40;13.48;;;;;;;6.90;61.52;100435.03;5013777;28;20041;-60
2023/03/05 07:25:29;;;;;;;21.67;14.70;;;;;;;7.02;62.08;100431.09;5025770;28;20049;-60
2023/03/05 07:27:57;;;;;;;21.40;12.65;;;;;;;7.06;61.68;100434.91;5026760;27;20042;-59
2023/03/05 07:30:25;;;;;;;19.15;13.38;;;;;;;7.21;61.51;100431.16;5029544;28;20053;-59
2023/03/05 07:32:52;;;;;;;20.33;13.38;;;;;;;7.28;62.11;100429.69;5029719;28;20049;-59
2023/03/05 07:35:20;;;;;;;24.08;15.70;;;;;;;7.28;62.11;100426.91;5029822;28;20053;-59
2023/03/05 07:37:47;;;;;;;27.65;17.80;;;;;;;7.37;61.27;100424.34;5029524;28;20049;-60
2023/03/05 07:40:14;;;;;;;23.77;15.52;;;;;;;7.41;61.41;100422.66;5028035;28;20510;-60
2023/03/05 07:42:41;;;;;;;24.92;15.82;;;;;;;7.34;60.98;100421.34;5026574;28;20053;-59
2023/03/05 07:45:10;;;;;;;26.02;15.45;;;;;;;7.34;61.29;100415.78;5028336;28;20518;-59
2023/03/05 07:47:38;;;;;;;25.33;15.32;;;;;;;7.32;61.77;100416.06;5027987;28;20399;-60
2023/03/05 07:50:07;;;;;;;22.27;15.45;;;;;;;7.27;61.92;100416.97;5029092;28;20388;-60
2023/03/05 07:52:34;;;;;;;20.13;14.38;;;;;;;7.27;61.73;100422.50;5029361;28;20409;-60
2023/03/05 07:55:01;;;;;;;22.15;15.13;;;;;;;7.27;61.40;100410.59;5028587;28;20049;-60
2023/03/05 07:57:28;;;;;;;23.00;14.77;;;;;;;7.30;60.64;100412.78;5028128;28;20050;-60
2023/03/05 07:59:56;;;;;;;21.02;13.93;;;;;;;7.25;60.55;100407.31;5029336;28;20057;-59
2023/03/05 08:02:23;;;;;;;20.23;13.18;;;;;;;7.24;60.93;100405.63;5020481;28;20049;-60
2023/03/05 08:04:54;;;;;;;20.63;12.63;;;;;;;7.30;61.20;100405.28;5029727;28;20077;-60
2023/03/05 08:07:21;;;;;;;18.60;11.70;;;;;;;7.35;60.84;100395.25;5028447;28;20053;-60
2023/03/05 08:09:49;;;;;;;20.05;11.75;;;;;;;7.51;61.03;100402.28;5028019;28;20049;-60
2023/03/05 08:12:16;;;;;;;19.00;13.55;;;;;;;7.72;59.60;100391.75;5024642;28;20516;-60
2023/03/05 08:14:43;;;;;;;19.10;13.98;;;;;;;7.93;60.38;100393.13;5021723;28;20050;-58
2023/03/05 08:17:10;;;;;;;23.67;13.38;;;;;;;7.71;60.09;100390.94;5032694;28;20057;-60
2023/03/05 08:19:39;;;;;;;20.30;13.95;;;;;;;7.89;59.71;100391.25;5032644;28;20049;-61
2023/03/05 08:22:08;;;;;;;23.10;13.13;;;;;;;7.98;60.31;100391.41;5030397;28;20049;-59
2023/03/05 08:24:36;;;;;;;20.02;14.40;;;;;;;7.98;59.81;100391.41;5027021;27;20056;-60
2023/03/05 08:27:03;;;;;;;18.40;13.13;;;;;;;8.09;59.03;100382.66;5030959;28;20049;-60
2023/03/05 08:29:30;;;;;;;17.27;12.52;;;;;;;8.13;59.57;100383.69;5031542;28;20484;-60
2023/03/05 08:31:58;;;;;;;16.60;12.55;;;;;;;8.18;59.77;100379.19;5032872;28;20057;-60
2023/03/05 08:34:25;;;;;;;16.95;11.75;;;;;;;8.37;58.81;100382.78;5031767;27;20499;-60
2023/03/05 08:36:52;;;;;;;15.52;11.55;;;;;;;8.54;57.93;100383.06;5032040;28;20131;-60
2023/03/05 08:39:21;;;;;;;13.15;11.05;;;;;;;8.47;58.05;100377.09;5031795;28;20056;-61
2023/03/05 08:41:51;;;;;;;16.33;11.60;;;;;;;8.28;59.09;100368.75;5030168;28;20435;-60
2023/03/05 08:44:18;;;;;;;15.98;12.82;;;;;;;8.13;58.46;100377.34;5032028;28;20060;-59
2023/03/05 08:46:47;;;;;;;22.35;12.63;;;;;;;8.05;58.73;100378.81;5032264;28;20050;-60
2023/03/05 08:49:15;;;;;;;17.95;13.25;;;;;;;8.11;59.75;100374.84;5032163;28;20057;-60
2023/03/05 08:51:42;;;;;;;18.15;12.95;;;;;;;8.39;58.85;100366.66;4988062;28;20416;-59
2023/03/05 08:54:09;;;;;;;16.60;13.13;;;;;;;8.82;57.12;100369.28;5004791;28;20061;-60
2023/03/05 08:56:38;;;;;;;17.50;14.35;;;;;;;9.01;57.14;100360.03;4994840;28;20077;-60
2023/03/05 08:59:06;;;;;;;21.73;14.75;;;;;;;9.37;56.66;100364.94;4998610;28;20500;-60
2023/03/05 09:01:33;;;;;;;16.88;12.88;;;;;;;9.69;55.37;100358.41;4986984;28;20058;-60
2023/03/05 09:04:01;;;;;;;16.55;12.68;;;;;;;10.09;55.51;100353.88;4979916;28;20054;-59
2023/03/05 09:06:28;;;;;;;15.45;12.13;;;;;;;10.33;53.80;100347.22;4988515;28;20077;-60
2023/03/05 09:08:55;;;;;;;16.85;13.07;;;;;;;10.40;53.37;100350.41;4988810;28;20067;-60
2023/03/05 09:11:23;;;;;;;17.83;13.75;;;;;;;10.66;53.26;100350.56;4987792;28;20053;-59
2023/03/05 09:13:51;;;;;;;20.92;15.02;;;;;;;10.78;53.54;100344.41;4988517;28;20400;-60
2023/03/05 09:16:20;;;;;;;18.75;14.77;;;;;;;10.75;52.61;100345.03;4987908;28;20055;-60
2023/03/05 09:18:47;;;;;;;20.85;15.10;;;;;;;10.67;52.20;100340.25;4989080;28;20055;-60
2023/03/05 09:21:16;;;;;;;19.27;14.70;;;;;;;10.50;52.59;100338.19;4983642;28;20050;-60
2023/03/05 09:23:45;;;;;;;21.52;17.20;;;;;;;9.99;53.39;100342.16;4987348;28;20061;-60
2023/03/05 09:26:14;;;;;;;23.00;16.88;;;;;;;9.76;53.65;100344.88;4981697;28;20051;-61
2023/03/05 09:28:42;;;;;;;22.65;16.88;;;;;;;9.44;53.54;100343.91;4990543;28;20481;-60
2023/03/05 09:31:11;;;;;;;22.02;16.90;;;;;;;9.23;54.11;100339.91;4986094;28;20381;-60
2023/03/05 09:33:39;;;;;;;21.15;17.50;;;;;;;9.07;55.37;100337.44;4984009;28;20130;-60
2023/03/05 09:36:17;;;;;;;24.73;18.98;;;;;;;9.05;55.62;100336.06;4992131;28;20058;-59
2023/03/05 09:38:45;;;;;;;22.92;16.58;;;;;;;9.31;56.25;100340.00;5013805;28;20051;-60
2023/03/05 09:41:18;;;;;;;17.85;14.02;;;;;;;9.51;55.61;100340.69;4988943;28;20043;-59
2023/03/05 09:43:54;;;;;;;17.05;12.13;;;;;;;9.58;55.85;100332.78;4989244;28;20050;-59
2023/03/05 09:46:34;;;;;;;14.27;10.18;;;;;;;9.66;53.97;100333.97;4992651;28;20053;-59
2023/03/05 09:49:14;;;;;;;10.48;8.70;;;;;;;9.65;54.09;100329.56;4992941;28;20054;-59
2023/03/05 09:51:45;;;;;;;;;;;;;;;9.57;55.03;100331.13;4991999;28;20481;-60
2023/03/05 09:54:16;;;;;;;10.25;8.80;;;;;;;9.50;54.87;100325.97;4991996;28;19921;-59
2023/03/05 09:56:47;;;;;;;13.52;9.63;;;;;;;9.20;55.66;100332.16;4986869;28;20057;-59
2023/03/05 09:59:27;;;;;;;10.52;8.98;;;;;;;9.06;55.66;100329.41;4991346;28;20515;-60
2023/03/05 10:02:00;;;;;;;12.30;10.45;;;;;;;8.95;55.23;100323.22;4986904;28;20050;-60
2023/03/05 10:04:38;;;;;;;13.93;10.77;;;;;;;8.90;56.16;100326.06;4989496;28;20054;-59
2023/03/05 10:07:12;;;;;;;15.13;11.90;;;;;;;8.91;56.00;100328.56;4984393;28;20073;-61
2023/03/05 10:09:45;;;;;;;16.63;13.75;;;;;;;9.11;55.75;100324.56;4988950;28;20389;-60
2023/03/05 10:12:19;;;;;;;16.25;14.18;;;;;;;9.10;55.99;100325.69;4988552;28;20050;-59
2023/03/05 10:14:48;;;;;;;15.80;13.70;;;;;;;9.20;54.96;100316.34;4987545;28;20493;-59
2023/03/05 10:17:48;;;;;;;16.13;13.25;;;;;;;9.46;55.65;100311.06;4990638;28;20062;-59
2023/03/05 10:20:44;;;;;;;16.90;14.32;;;;;;;9.47;55.95;100315.50;4989480;28;20505;-60
2023/03/05 10:23:32;;;;;;;14.50;12.75;;;;;;;9.43;56.01;100310.84;4990163;28;20062;-59
2023/03/05 10:26:08;;;;;;;14.00;12.48;;;;;;;9.24;54.52;100313.75;4979302;28;20065;-59
2023/03/05 10:28:43;;;;;;;11.80;10.57;;;;;;;9.11;55.13;100307.91;4988821;28;20054;-60
2023/03/05 10:31:24;;;;;;;12.30;11.10;;;;;;;9.00;56.03;100300.88;4990090;28;20057;-60
2023/03/05 10:34:07;;;;;;;13.30;11.93;;;;;;;8.79;55.89;100306.00;4988827;28;20055;-60
2023/03/05 10:36:46;;;;;;;12.77;11.48;;;;;;;9.08;55.65;100293.78;4982345;28;20399;-59
2023/03/05 10:39:49;;;;;;;11.98;10.65;;;;;;;9.48;56.02;100283.75;4989184;28;20077;-59
2023/03/05 10:42:27;;;;;;;10.27;9.23;;;;;;;10.22;53.86;100281.78;4993175;28;20081;-59
2023/03/05 10:44:57;;;;;;;11.43;10.25;;;;;;;10.35;53.02;100280.91;4990665;28;20050;-58
2023/03/05 10:47:28;;;;;;;10.40;9.40;;;;;;;10.01;51.66;100271.13;4988717;28;20054;-58
2023/03/05 10:49:59;;;;;;;10.98;9.88;;;;;;;9.89;53.38;100268.94;5002718;28;20068;-59
2023/03/05 10:52:31;;;;;;;11.20;9.95;;;;;;;9.68;54.24;100268.59;5026197;27;20053;-60
2023/03/05 10:54:58;;;;;;;11.07;9.98;;;;;;;9.65;54.61;100266.41;5026578;28;20049;-59
2023/03/05 10:57:30;;;;;;;12.15;10.77;;;;;;;9.58;54.39;100265.22;5025745;28;20061;-59
2023/03/05 11:00:09;;;;;;;10.57;9.55;;;;;;;9.60;55.06;100274.09;5022105;28;20056;-59
2023/03/05 11:02:53;;;;;;;10.40;9.38;;;;;;;9.42;55.38;100270.28;5024826;28;20064;-59
2023/03/05 11:05:40;;;;;;;11.48;8.05;;;;;;;9.23;55.22;100260.13;5026720;28;20060;-60
2023/03/05 11:08:33;;;;;;;9.88;8.20;;;;;;;9.14;54.58;100256.44;5042125;27;20141;-59
2023/03/05 11:11:19;;;;;;;12.95;9.77;;;;;;;9.04;55.44;100257.47;5027500;27;20054;-59
2023/03/05 11:13:57;;;;;;;10.77;9.32;;;;;;;8.99;55.44;100245.63;5029320;28;20064;-59
2023/03/05 11:16:29;;;;;;;9.40;8.45;;;;;;;8.89;56.41;100255.81;5026482;28;20053;-59
2023/03/05 11:19:20;;;;;;;9.77;8.70;;;;;;;8.99;57.07;100238.13;5026290;28;20476;-59
2023/03/05 11:22:09;;;;;;;11.30;9.32;;;;;;;9.07;56.71;100244.91;5030587;28;20049;-58
2023/03/05 11:24:40;;;;;;;10.25;9.18;;;;;;;9.13;55.78;100247.28;5044966;27;20047;-58
2023/03/05 11:27:24;;;;;;;11.07;7.85;;;;;;;9.01;56.44;100243.34;5048061;28;20049;-57
2023/03/05 11:29:51;;;;;;;10.88;9.70;;;;;;;8.85;56.85;100240.09;5021886;28;20073;-59
2023/03/05 11:32:23;;;;;;;10.73;8.93;;;;;;;8.91;56.05;100242.44;5027553;28;20049;-59
2023/03/05 11:34:50;;;;;;;11.85;9.32;;;;;;;8.90;56.48;100235.25;5028692;28;20061;-59
2023/03/05 11:37:25;;;;;;;10.88;8.95;;;;;;;8.87;56.63;100230.31;5027710;28;20291;-59